createdAt,value
2022-08-14T00:01:32.254Z,6.00
2022-08-14T00:03:59.959Z,7.53
2022-08-14T00:06:28.951Z,8.25
2022-08-14T00:08:58.788Z,7.85
2022-08-14T00:11:28.783Z,7.25
2022-08-14T00:14:01.987Z,7.28
2022-08-14T00:16:44.276Z,8.43
2022-08-14T00:19:21.245Z,9.00
2022-08-14T00:21:51.928Z,6.93
2022-08-14T00:24:23.180Z,6.57
2022-08-14T00:27:01.899Z,7.40
2022-08-14T00:29:33.187Z,8.07
2022-08-14T00:32:51.725Z,7.65
2022-08-14T00:34:57.165Z,7.45
2022-08-14T00:37:24.641Z,9.60
2022-08-14T00:39:51.819Z,7.53
2022-08-14T00:42:55.924Z,9.75
2022-08-14T00:45:12.401Z,8.18
2022-08-14T00:47:44.635Z,8.68
2022-08-14T00:50:18.195Z,7.38
2022-08-14T00:52:51.026Z,8.18
2022-08-14T00:55:19.515Z,8.98
2022-08-14T00:58:06.651Z,7.38
2022-08-14T01:00:43.102Z,8.02
2022-08-14T01:03:20.101Z,8.38
2022-08-14T01:05:51.865Z,9.63
2022-08-14T01:08:51.520Z,9.43
2022-08-14T01:11:08.130Z,11.15
2022-08-14T01:13:42.915Z,7.95
2022-08-14T01:16:15.037Z,8.45
2022-08-14T01:19:02.239Z,6.50
2022-08-14T01:21:38.720Z,8.23
2022-08-14T01:24:30.645Z,7.80
2022-08-14T01:27:01.507Z,7.63
2022-08-14T01:29:59.278Z,7.63
2022-08-14T01:32:24.903Z,8.13
2022-08-14T01:35:18.393Z,8.43
2022-08-14T01:37:46.719Z,8.93
2022-08-14T01:40:36.473Z,8.68
2022-08-14T01:43:14.571Z,8.35
2022-08-14T01:45:42.128Z,10.00
2022-08-14T01:48:13.560Z,8.02
2022-08-14T01:50:42.376Z,8.20
2022-08-14T01:53:09.795Z,7.88
2022-08-14T01:55:40.412Z,9.70
2022-08-14T01:58:20.126Z,8.35
2022-08-14T02:00:55.783Z,8.73
2022-08-14T02:03:24.502Z,10.07
2022-08-14T02:06:04.039Z,8.70
2022-08-14T02:08:52.798Z,7.97
2022-08-14T02:11:22.556Z,8.63
2022-08-14T02:13:56.536Z,8.38
2022-08-14T02:16:26.456Z,8.35
2022-08-14T02:18:54.752Z,8.68
2022-08-14T02:21:23.380Z,7.25
2022-08-14T02:23:53.664Z,8.98
2022-08-14T02:26:24.554Z,8.90
2022-08-14T02:29:03.501Z,10.18
2022-08-14T02:31:41.982Z,10.98
2022-08-14T02:34:22.407Z,7.82
2022-08-14T02:37:04.183Z,8.52
2022-08-14T02:39:33.555Z,9.05
2022-08-14T02:42:04.460Z,11.13
2022-08-14T02:44:31.398Z,9.57
2022-08-14T02:47:15.130Z,9.73
2022-08-14T02:49:46.201Z,9.73
2022-08-14T02:52:56.799Z,10.80
2022-08-14T02:55:06.839Z,9.27
2022-08-14T02:57:40.461Z,9.68
2022-08-14T03:00:13.026Z,10.18
2022-08-14T03:02:56.481Z,10.38
2022-08-14T03:05:30.571Z,11.00
2022-08-14T03:08:11.946Z,10.55
2022-08-14T03:10:49.127Z,12.00
2022-08-14T03:13:19.781Z,13.70
2022-08-14T03:18:31.530Z,13.57
2022-08-14T03:21:07.892Z,11.68
2022-08-14T03:23:36.443Z,12.60
2022-08-14T03:26:07.887Z,12.45
2022-08-14T03:28:34.764Z,15.38
2022-08-14T03:31:04.338Z,13.02
2022-08-14T03:33:40.199Z,13.63
2022-08-14T03:37:37.850Z,16.42
2022-08-14T03:39:13.886Z,15.65
2022-08-14T03:41:48.275Z,15.70
2022-08-14T03:45:25.403Z,17.08
2022-08-14T03:47:03.154Z,16.20
2022-08-14T03:49:30.412Z,19.80
2022-08-14T03:52:04.654Z,20.08
2022-08-14T03:54:35.945Z,16.05
2022-08-14T03:57:03.404Z,18.80
2022-08-14T03:59:32.226Z,20.60
2022-08-14T04:02:02.283Z,15.90
2022-08-14T04:04:31.535Z,12.50
2022-08-14T04:06:59.743Z,12.85
2022-08-14T04:09:27.319Z,11.93
2022-08-14T04:11:56.120Z,11.32
2022-08-14T04:14:25.031Z,9.80
2022-08-14T04:16:51.879Z,9.40
2022-08-14T04:19:19.919Z,10.02
2022-08-14T04:22:03.611Z,9.35
2022-08-14T04:24:37.950Z,10.20
2022-08-14T04:27:10.056Z,10.40
2022-08-14T04:29:40.607Z,9.80
2022-08-14T04:32:57.568Z,11.32
2022-08-14T04:34:57.372Z,10.07
2022-08-14T04:37:42.918Z,11.00
2022-08-14T04:40:28.650Z,9.45
2022-08-14T04:43:17.214Z,10.23
2022-08-14T04:45:44.607Z,10.63
2022-08-14T04:48:13.205Z,10.18
2022-08-14T04:50:45.521Z,12.25
2022-08-14T04:53:23.213Z,12.43
2022-08-14T04:58:32.359Z,9.18
2022-08-14T05:01:00.430Z,11.20
2022-08-14T05:03:29.126Z,11.15
2022-08-14T05:05:57.826Z,11.43
2022-08-14T05:08:31.952Z,10.82
2022-08-14T05:11:13.512Z,10.88
2022-08-14T05:14:33.108Z,11.55
2022-08-14T05:16:31.596Z,12.13
2022-08-14T05:19:18.058Z,12.88
2022-08-14T05:21:56.620Z,12.18
2022-08-14T05:24:25.722Z,12.80
2022-08-14T05:26:52.535Z,10.88
2022-08-14T05:29:20.642Z,10.55
2022-08-14T05:31:47.584Z,11.10
2022-08-14T05:34:14.489Z,13.00
2022-08-14T05:36:43.121Z,13.77
2022-08-14T05:39:17.942Z,13.93
2022-08-14T05:41:52.469Z,13.57
2022-08-14T05:44:20.903Z,14.20
2022-08-14T05:46:48.231Z,14.20
2022-08-14T05:49:15.514Z,13.50
2022-08-14T05:51:46.744Z,14.30
2022-08-14T05:54:27.081Z,15.68
2022-08-14T05:56:55.160Z,14.68
2022-08-14T05:59:36.470Z,14.20
2022-08-14T06:02:10.536Z,16.17
2022-08-14T06:04:39.096Z,14.25
2022-08-14T06:07:06.327Z,15.63
2022-08-14T06:09:35.931Z,20.30
2022-08-14T06:12:11.774Z,20.75
2022-08-14T06:14:38.886Z,17.95
2022-08-14T06:17:06.401Z,17.80
2022-08-14T06:19:33.263Z,17.23
2022-08-14T06:22:00.141Z,18.70
2022-08-14T06:24:30.610Z,17.17
2022-08-14T06:27:06.018Z,18.48
2022-08-14T06:29:34.894Z,19.65
2022-08-14T06:32:36.961Z,20.70
2022-08-14T06:35:03.967Z,21.40
2022-08-14T06:38:04.534Z,24.05
2022-08-14T06:40:34.440Z,21.35
2022-08-14T06:43:03.886Z,25.65
2022-08-14T06:45:32.003Z,22.05
2022-08-14T06:47:59.194Z,24.05
2022-08-14T06:50:28.638Z,24.65
2022-08-14T06:52:58.501Z,24.63
2022-08-14T06:55:27.736Z,22.65
2022-08-14T06:57:56.214Z,23.40
2022-08-14T07:00:26.996Z,24.00
2022-08-14T07:03:13.223Z,18.38
2022-08-14T07:05:55.555Z,19.58
2022-08-14T07:08:31.422Z,21.60
2022-08-14T07:11:00.570Z,20.13
2022-08-14T07:13:28.430Z,22.20
2022-08-14T07:15:56.096Z,20.35
2022-08-14T07:18:29.643Z,18.73
2022-08-14T07:20:57.959Z,17.50
2022-08-14T07:23:25.899Z,15.32
2022-08-14T07:25:54.499Z,15.48
2022-08-14T07:28:23.598Z,16.55
2022-08-14T07:30:52.291Z,13.82
2022-08-14T07:33:24.946Z,14.95
2022-08-14T07:35:59.130Z,16.60
2022-08-14T07:38:32.070Z,14.73
2022-08-14T07:41:11.752Z,12.85
2022-08-14T07:43:42.293Z,13.95
2022-08-14T07:46:09.290Z,13.95
2022-08-14T07:48:43.917Z,13.20
2022-08-14T07:51:14.923Z,12.13
2022-08-14T07:53:41.799Z,13.82
2022-08-14T07:56:21.770Z,14.57
2022-08-14T07:58:58.416Z,12.25
2022-08-14T08:01:26.221Z,11.15
2022-08-14T08:03:59.594Z,10.52
2022-08-14T08:06:27.548Z,10.93
2022-08-14T08:08:58.749Z,11.15
2022-08-14T08:11:30.111Z,13.57
2022-08-14T08:14:03.911Z,9.15
2022-08-14T08:16:31.531Z,12.00
2022-08-14T08:19:01.808Z,11.30
2022-08-14T08:21:33.171Z,10.07
2022-08-14T08:24:02.440Z,10.93
2022-08-14T08:26:31.148Z,9.30
2022-08-14T08:28:58.542Z,9.25
2022-08-14T08:31:34.910Z,11.07
2022-08-14T08:34:04.804Z,9.48
2022-08-14T08:36:41.480Z,11.50
2022-08-14T08:39:14.722Z,12.23
2022-08-14T08:41:50.475Z,9.10
2022-08-14T08:44:33.227Z,9.30
2022-08-14T08:47:06.210Z,9.98
2022-08-14T08:49:52.897Z,10.25
2022-08-14T08:52:40.410Z,8.45
2022-08-14T08:55:10.822Z,8.30
2022-08-14T08:57:39.803Z,8.32
2022-08-14T09:00:24.456Z,10.10
2022-08-14T09:02:58.061Z,9.82
2022-08-14T09:07:56.426Z,8.98
2022-08-14T09:10:23.839Z,7.57
2022-08-14T09:12:56.140Z,10.82
2022-08-14T09:15:24.226Z,8.50
2022-08-14T09:17:51.201Z,8.85
2022-08-14T09:20:26.434Z,10.40
2022-08-14T09:22:58.987Z,7.18
2022-08-14T09:25:59.794Z,8.82
2022-08-14T09:28:12.861Z,6.72
2022-08-14T09:30:45.692Z,10.50
2022-08-14T09:33:31.482Z,7.53
2022-08-14T09:36:27.180Z,7.63
2022-08-14T09:39:38.725Z,8.50
2022-08-14T09:42:45.134Z,7.03
2022-08-14T09:45:18.939Z,6.40
2022-08-14T09:47:46.290Z,6.82
2022-08-14T09:50:31.260Z,6.88
2022-08-14T09:53:06.393Z,6.95
2022-08-14T09:55:44.846Z,6.30
2022-08-14T09:58:22.794Z,6.80
2022-08-14T10:00:57.419Z,7.78
2022-08-14T10:03:34.614Z,8.43
2022-08-14T10:06:05.558Z,6.20
2022-08-14T10:08:51.625Z,7.63
2022-08-14T10:11:34.847Z,8.52
2022-08-14T10:14:21.110Z,7.30
2022-08-14T10:16:57.522Z,6.43
2022-08-14T10:19:25.646Z,7.18
2022-08-14T10:23:11.802Z,8.80
2022-08-14T10:24:55.784Z,8.10
2022-08-14T10:27:24.998Z,7.78
2022-08-14T10:29:58.377Z,7.28
2022-08-14T10:32:28.652Z,6.78
2022-08-14T10:35:14.213Z,7.88
2022-08-14T10:37:49.442Z,6.47
2022-08-14T10:40:44.135Z,6.47
2022-08-14T10:43:27.636Z,6.38
2022-08-14T10:46:59.058Z,6.53
2022-08-14T10:48:57.410Z,7.40
2022-08-14T10:51:30.222Z,7.13
2022-08-14T10:54:25.994Z,6.93
2022-08-14T10:56:55.892Z,9.63
2022-08-14T10:59:30.637Z,5.38
2022-08-14T11:01:59.797Z,6.22
2022-08-14T11:04:30.267Z,5.47
2022-08-14T11:06:57.751Z,10.68
2022-08-14T11:09:26.207Z,7.35
2022-08-14T11:12:34.315Z,7.65
2022-08-14T11:14:59.127Z,5.40
2022-08-14T11:17:31.789Z,5.72
2022-08-14T11:19:59.715Z,7.78
2022-08-14T11:22:52.529Z,6.72
2022-08-14T11:25:15.686Z,5.80
2022-08-14T11:27:44.519Z,6.07
2022-08-14T11:30:51.438Z,6.10
2022-08-14T11:35:44.063Z,6.50
2022-08-14T11:38:14.799Z,8.18
2022-08-14T11:40:47.105Z,5.60
2022-08-14T11:43:15.107Z,6.63
2022-08-14T11:45:45.907Z,5.10
2022-08-14T11:49:01.938Z,6.95
2022-08-14T11:51:13.834Z,6.47
2022-08-14T11:53:41.961Z,9.90
2022-08-14T11:56:11.144Z,4.97
2022-08-14T11:58:38.301Z,4.72
2022-08-14T12:01:09.502Z,6.05
2022-08-14T12:06:29.439Z,5.35
2022-08-14T12:09:02.690Z,7.13
2022-08-14T12:11:44.124Z,6.78
2022-08-14T12:14:30.711Z,5.32
2022-08-14T12:17:12.524Z,7.22
2022-08-14T12:19:51.274Z,6.22
2022-08-14T12:22:36.267Z,6.10
2022-08-14T12:25:21.066Z,5.53
2022-08-14T12:27:54.600Z,6.22
2022-08-14T12:30:39.351Z,6.47
2022-08-14T12:33:30.530Z,6.93
2022-08-14T12:36:00.466Z,6.97
2022-08-14T12:38:45.561Z,6.38
2022-08-14T12:41:16.513Z,5.60
2022-08-14T12:44:06.942Z,5.35
2022-08-14T12:46:43.534Z,5.25
2022-08-14T12:49:16.416Z,4.90
2022-08-14T12:51:43.645Z,5.47
2022-08-14T12:54:27.683Z,6.03
2022-08-14T12:57:06.544Z,6.32
2022-08-14T12:59:37.268Z,5.30
2022-08-14T13:02:21.335Z,6.38
2022-08-14T13:04:52.559Z,5.38
2022-08-14T13:07:21.018Z,5.10
2022-08-14T13:09:49.057Z,6.97
2022-08-14T13:12:32.516Z,7.22
2022-08-14T13:15:01.995Z,6.57
2022-08-14T13:17:43.359Z,7.18
2022-08-14T13:20:24.756Z,10.15
2022-08-14T13:22:52.823Z,6.38
2022-08-14T13:25:24.551Z,8.35
2022-08-14T13:27:58.956Z,7.60
2022-08-14T13:30:26.005Z,8.15
2022-08-14T13:32:53.932Z,5.70
2022-08-14T13:35:22.651Z,6.40
2022-08-14T13:37:52.387Z,7.95
2022-08-14T13:40:21.865Z,5.97
2022-08-14T13:42:53.914Z,6.20
2022-08-14T13:45:24.619Z,9.13
2022-08-14T13:48:01.324Z,9.82
2022-08-14T13:50:28.204Z,6.20
2022-08-14T13:52:55.173Z,5.28
2022-08-14T13:55:23.645Z,5.30
2022-08-14T13:58:03.795Z,7.37
2022-08-14T14:00:51.705Z,5.25
2022-08-14T14:03:21.934Z,5.20
2022-08-14T14:05:54.404Z,5.03
2022-08-14T14:08:46.694Z,6.18
2022-08-14T14:11:09.906Z,5.55
2022-08-14T14:13:37.266Z,5.20
2022-08-14T14:16:09.309Z,4.57
2022-08-14T14:18:41.580Z,5.53
2022-08-14T14:21:09.400Z,5.68
2022-08-14T14:23:37.924Z,5.68
2022-08-14T14:26:06.052Z,4.20
2022-08-14T14:28:33.481Z,4.65
2022-08-14T14:31:06.856Z,5.75
2022-08-14T14:33:48.874Z,5.20
2022-08-14T14:36:27.884Z,7.82
2022-08-14T14:39:03.619Z,4.63
2022-08-14T14:41:38.620Z,5.65
2022-08-14T14:44:15.559Z,5.50
2022-08-14T14:46:46.162Z,5.10
2022-08-14T14:49:14.963Z,11.50
2022-08-14T14:51:44.455Z,5.57
2022-08-14T14:54:14.432Z,5.75
2022-08-14T14:56:47.823Z,5.82
2022-08-14T14:59:18.677Z,5.93
2022-08-14T15:01:49.189Z,5.10
2022-08-14T15:04:20.545Z,5.78
2022-08-14T15:06:48.856Z,4.90
2022-08-14T15:09:17.567Z,5.63
2022-08-14T15:11:45.731Z,5.22
2022-08-14T15:14:55.356Z,8.05
2022-08-14T15:17:02.177Z,6.85
2022-08-14T15:19:29.709Z,6.43
2022-08-14T15:21:57.755Z,5.25
2022-08-14T15:24:26.908Z,6.47
2022-08-14T15:26:58.549Z,5.30
2022-08-14T15:29:25.824Z,5.57
2022-08-14T15:31:53.848Z,7.13
2022-08-14T15:34:45.655Z,5.90
2022-08-14T15:37:12.838Z,5.07
2022-08-14T15:39:41.824Z,4.75
2022-08-14T15:42:14.376Z,6.35
2022-08-14T15:44:46.594Z,6.03
2022-08-14T15:47:28.239Z,6.50
2022-08-14T15:49:59.642Z,4.93
2022-08-14T15:52:32.431Z,6.10
2022-08-14T15:55:04.305Z,6.93
2022-08-14T15:57:32.086Z,6.20
2022-08-14T16:00:37.881Z,5.65
2022-08-14T16:03:04.590Z,7.25
2022-08-14T16:05:38.326Z,6.45
2022-08-14T16:08:29.021Z,6.63
2022-08-14T16:10:55.618Z,5.57
2022-08-14T16:13:41.102Z,6.05
2022-08-14T16:16:47.462Z,5.90
2022-08-14T16:19:03.231Z,6.45
2022-08-14T16:21:31.589Z,5.90
2022-08-14T16:23:59.834Z,6.00
2022-08-14T16:26:29.967Z,5.30
2022-08-14T16:29:04.758Z,5.55
2022-08-14T16:31:35.932Z,6.45
2022-08-14T16:34:44.711Z,5.40
2022-08-14T16:36:51.278Z,6.40
2022-08-14T16:39:18.194Z,6.93
2022-08-14T16:41:45.629Z,6.40
2022-08-14T16:44:31.385Z,7.47
2022-08-14T16:46:58.967Z,5.68
2022-08-14T16:49:50.553Z,5.90
2022-08-14T16:52:26.278Z,7.32
2022-08-14T16:55:03.135Z,7.28
2022-08-14T16:57:32.413Z,6.00
2022-08-14T16:59:59.599Z,6.95
2022-08-14T17:02:39.094Z,7.65
2022-08-14T17:05:24.839Z,6.68
2022-08-14T17:08:03.831Z,6.22
2022-08-14T17:10:50.599Z,6.18
2022-08-14T17:13:27.372Z,5.82
2022-08-14T17:16:25.535Z,6.53
2022-08-14T17:19:01.219Z,7.00
2022-08-14T17:21:38.143Z,7.15
2022-08-14T17:24:57.532Z,7.03
2022-08-14T17:27:04.139Z,7.22
2022-08-14T17:29:34.533Z,9.10
2022-08-14T17:32:28.378Z,5.40
2022-08-14T17:34:55.448Z,6.53
2022-08-14T17:37:27.921Z,5.70
2022-08-14T17:40:15.897Z,7.53
2022-08-14T17:42:53.334Z,7.07
2022-08-14T17:45:43.208Z,7.30
2022-08-14T17:49:15.156Z,6.53
2022-08-14T17:51:17.014Z,5.68
2022-08-14T17:53:53.623Z,5.80
2022-08-14T17:56:31.605Z,5.60
2022-08-14T17:59:04.157Z,5.82
2022-08-14T18:01:35.641Z,10.23
2022-08-14T18:04:05.631Z,7.53
2022-08-14T18:06:57.762Z,5.45
2022-08-14T18:09:26.438Z,6.82
2022-08-14T18:11:55.206Z,6.53
2022-08-14T18:14:32.418Z,6.07
2022-08-14T18:17:01.377Z,5.40
2022-08-14T18:19:30.155Z,7.90
2022-08-14T18:22:03.937Z,6.45
2022-08-14T18:24:31.742Z,7.03
2022-08-14T18:27:09.189Z,7.10
2022-08-14T18:29:54.745Z,6.63
2022-08-14T18:32:31.943Z,8.40
2022-08-14T18:34:58.789Z,6.50
2022-08-14T18:37:27.019Z,6.10
2022-08-14T18:40:03.336Z,6.97
2022-08-14T18:42:34.991Z,6.80
2022-08-14T18:45:12.302Z,7.70
2022-08-14T18:48:14.827Z,6.93
2022-08-14T18:50:30.706Z,6.72
2022-08-14T18:53:09.166Z,7.50
2022-08-14T18:55:53.124Z,10.63
2022-08-14T18:58:28.216Z,7.80
2022-08-14T19:00:59.443Z,8.05
2022-08-14T19:03:36.552Z,7.30
2022-08-14T19:06:08.106Z,8.43
2022-08-14T19:08:46.193Z,7.85
2022-08-14T19:11:32.041Z,7.95
2022-08-14T19:13:59.494Z,8.05
2022-08-14T19:16:34.897Z,6.32
2022-08-14T19:19:08.833Z,8.43
2022-08-14T19:21:40.880Z,6.90
2022-08-14T19:24:27.375Z,7.90
2022-08-14T19:27:16.599Z,8.98
2022-08-14T19:29:47.806Z,10.20
2022-08-14T19:32:36.745Z,7.50
2022-08-14T19:35:16.815Z,9.48
2022-08-14T19:37:54.866Z,8.43
2022-08-14T19:40:39.977Z,10.93
2022-08-14T19:43:09.383Z,8.75
2022-08-14T19:45:37.614Z,9.20
2022-08-14T19:48:11.265Z,8.57
2022-08-14T19:50:41.322Z,9.77
2022-08-14T19:53:17.411Z,8.68
2022-08-14T19:56:02.242Z,10.85
2022-08-14T19:58:54.030Z,9.68
2022-08-14T20:01:36.446Z,11.35
2022-08-14T20:04:07.371Z,9.75
2022-08-14T20:06:46.507Z,12.70
2022-08-14T20:11:03.251Z,11.70
2022-08-14T20:12:04.769Z,12.20
2022-08-14T20:14:36.097Z,11.68
2022-08-14T20:17:06.680Z,10.85
2022-08-14T20:19:37.957Z,10.85
2022-08-14T20:22:35.118Z,10.32
2022-08-14T20:24:56.434Z,10.75
2022-08-14T20:27:34.309Z,15.40
2022-08-14T20:30:29.929Z,10.95
2022-08-14T20:32:55.129Z,11.32
2022-08-14T20:35:35.283Z,10.05
2022-08-14T20:38:31.006Z,10.40
2022-08-14T20:41:01.881Z,10.35
2022-08-14T20:43:53.262Z,10.43
2022-08-14T20:46:23.510Z,11.82
2022-08-14T20:49:16.446Z,11.75
2022-08-14T20:51:58.515Z,9.00
2022-08-14T20:54:34.628Z,10.05
2022-08-14T20:57:10.689Z,11.75
2022-08-14T20:59:43.854Z,9.18
2022-08-14T21:02:30.474Z,10.38
2022-08-14T21:05:16.720Z,10.20
2022-08-14T21:07:50.702Z,9.48
2022-08-14T21:10:36.057Z,9.90
2022-08-14T21:13:25.539Z,8.57
2022-08-14T21:15:57.448Z,7.75
2022-08-14T21:18:34.316Z,7.70
2022-08-14T21:21:06.939Z,8.90
2022-08-14T21:23:36.103Z,8.25
2022-08-14T21:26:50.443Z,7.78
2022-08-14T21:29:11.186Z,7.15
2022-08-14T21:31:38.606Z,8.70
2022-08-14T21:34:31.735Z,6.30
2022-08-14T21:36:54.446Z,7.53
2022-08-14T21:39:22.465Z,7.45
2022-08-14T21:41:58.659Z,9.13
2022-08-14T21:44:34.380Z,5.90
2022-08-14T21:47:11.559Z,7.03
2022-08-14T21:49:40.156Z,5.90
2022-08-14T21:52:49.339Z,7.28
2022-08-14T21:54:59.715Z,7.72
2022-08-14T21:57:56.219Z,7.28
2022-08-14T22:00:30.404Z,6.28
2022-08-14T22:03:04.295Z,7.03
2022-08-14T22:05:31.394Z,6.43
2022-08-14T22:07:58.342Z,7.97
2022-08-14T22:10:25.457Z,6.38
2022-08-14T22:13:00.644Z,7.32
2022-08-14T22:15:28.218Z,5.63
2022-08-14T22:17:55.408Z,6.50
2022-08-14T22:20:22.868Z,7.90
2022-08-14T22:22:56.044Z,6.72
2022-08-14T22:25:33.478Z,7.65
2022-08-14T22:28:05.869Z,6.10
2022-08-14T22:30:33.092Z,5.82
2022-08-14T22:33:00.495Z,5.63
2022-08-14T22:35:27.759Z,7.25
2022-08-14T22:38:34.609Z,6.28
2022-08-14T22:41:01.074Z,6.50
2022-08-14T22:43:31.362Z,6.03
2022-08-14T22:46:02.313Z,40.47
2022-08-14T22:48:29.706Z,28.93
2022-08-14T22:50:57.134Z,8.25
2022-08-14T22:53:29.535Z,7.68
2022-08-14T22:55:56.886Z,8.35
2022-08-14T22:58:31.800Z,7.68
2022-08-14T23:01:10.155Z,9.30
2022-08-14T23:03:40.011Z,31.60
2022-08-14T23:07:02.124Z,17.02
2022-08-14T23:09:36.301Z,15.85
2022-08-14T23:11:49.086Z,13.98
2022-08-14T23:14:23.683Z,12.57
2022-08-14T23:16:52.294Z,8.90
2022-08-14T23:19:24.850Z,8.63
2022-08-14T23:22:00.944Z,8.18
2022-08-14T23:24:27.743Z,7.05
2022-08-14T23:26:55.980Z,7.05
2022-08-14T23:29:22.833Z,7.53
2022-08-14T23:31:49.832Z,7.05
2022-08-14T23:34:20.737Z,6.25
2022-08-14T23:36:53.394Z,7.00
2022-08-14T23:39:24.479Z,6.47
2022-08-14T23:41:56.921Z,6.55
2022-08-14T23:44:32.080Z,6.63
2022-08-14T23:47:03.362Z,5.70
2022-08-14T23:49:55.434Z,6.95
2022-08-14T23:52:56.337Z,5.85
2022-08-14T23:55:11.381Z,5.82
2022-08-14T23:57:43.961Z,7.68
